Time;durP1;ratioP1;P1;durP2;ratioP2;P2;SDS_P1;SDS_P2;PMS_P1;PMS_P2;Temp;Humidity;BMP_temperature;BMP_pressure;BME280_temperature;BME280_humidity;BME280_pressure;Samples;Min_cycle;Max_cycle;Signal;HPM_P1;HPM_P2
2023/01/18 00:02:00;;;;;;;11.40;10.57;;;3.90;99.90;;;;;;4992709;28;20038;-89
2023/01/18 00:04:26;;;;;;;19.53;14.07;;;3.80;99.90;;;;;;4986163;28;20049;-89
2023/01/18 00:06:52;;;;;;;15.80;14.20;;;3.80;99.90;;;;;;5001659;28;20038;-89
2023/01/18 00:09:19;;;;;;;20.50;16.60;;;3.70;99.90;;;;;;4991331;28;20034;-90
2023/01/18 00:11:47;;;;;;;16.90;14.93;;;3.70;99.90;;;;;;5025709;28;20460;-90
2023/01/18 00:14:13;;;;;;;20.23;16.40;;;3.70;99.90;;;;;;5025810;28;20041;-89
2023/01/18 00:16:39;;;;;;;18.50;16.33;;;3.70;99.90;;;;;;5025277;28;20038;-90
2023/01/18 00:19:11;;;;;;;18.03;16.13;;;3.60;99.90;;;;;;5008268;28;20374;-90
2023/01/18 00:21:38;;;;;;;18.50;15.73;;;3.60;99.90;;;;;;4991923;28;20022;-90
2023/01/18 00:24:09;;;;;;;15.67;14.27;;;3.70;99.90;;;;;;4992648;28;20019;-89
2023/01/18 00:26:36;;;;;;;20.43;16.70;;;3.60;99.90;;;;;;5017532;28;20029;-89
2023/01/18 00:29:03;;;;;;;23.97;17.43;;;3.60;99.90;;;;;;4999385;28;20053;-89
2023/01/18 00:31:29;;;;;;;17.13;15.30;;;3.60;99.90;;;;;;5015592;28;20045;-89
2023/01/18 00:33:56;;;;;;;23.67;18.07;;;3.50;99.90;;;;;;4979309;28;20035;-90
2023/01/18 00:36:22;;;;;;;23.33;18.13;;;3.40;99.90;;;;;;4996416;28;20049;-89
2023/01/18 00:38:51;;;;;;;23.07;18.20;;;3.50;99.90;;;;;;4992234;28;20073;-90
2023/01/18 00:41:18;;;;;;;27.50;18.50;;;3.50;99.90;;;;;;4992821;28;20384;-90
2023/01/18 00:43:44;;;;;;;20.40;17.90;;;3.50;99.90;;;;;;4992854;28;20043;-90
2023/01/18 00:46:12;;;;;;;21.43;15.33;;;3.40;99.90;;;;;;4997642;28;20038;-90
2023/01/18 00:48:39;;;;;;;25.23;18.30;;;3.40;99.90;;;;;;5012258;28;20027;-90
2023/01/18 00:51:09;;;;;;;22.43;18.73;;;3.40;99.90;;;;;;5027943;28;20379;-90
2023/01/18 00:53:37;;;;;;;22.65;19.80;;;3.30;99.90;;;;;;4997096;28;20038;-90
2023/01/18 00:56:14;;;;;;;25.03;18.70;;;3.30;99.90;;;;;;5012257;28;20037;-90
2023/01/18 00:58:40;;;;;;;26.53;19.47;;;3.30;99.90;;;;;;5028769;28;20045;-90
2023/01/18 01:01:06;;;;;;;22.40;18.70;;;3.40;99.90;;;;;;5027296;28;20044;-90
2023/01/18 01:06:42;;;;;;;24.67;19.80;;;3.30;99.90;;;;;;5037321;28;20037;-90
2023/01/18 01:06:45;;;;;;;20.10;17.53;;;3.30;99.90;;;;;;4999199;28;20392;-90
2023/01/18 01:09:24;;;;;;;27.77;18.47;;;3.30;99.90;;;;;;4994749;28;20526;-89
2023/01/18 01:28:24;;;;;;;31.97;21.23;;;3.30;99.90;;;;;;5003386;28;20061;-90
2023/01/18 01:30:50;;;;;;;15.57;13.93;;;3.20;99.90;;;;;;4975222;28;20041;-89
2023/01/18 01:33:17;;;;;;;28.33;20.97;;;3.10;99.90;;;;;;4975505;28;20047;-89
2023/01/18 01:35:43;;;;;;;24.77;17.60;;;3.10;99.90;;;;;;4979175;28;20037;-90
2023/01/18 01:38:09;;;;;;;28.37;21.17;;;3.10;99.90;;;;;;4991646;28;20484;-90
2023/01/18 01:40:35;;;;;;;31.43;22.93;;;3.10;99.90;;;;;;5012224;28;20049;-90
2023/01/18 01:43:01;;;;;;;25.33;21.33;;;3.10;99.90;;;;;;5028623;28;20392;-89
2023/01/18 01:45:28;;;;;;;31.90;21.73;;;3.10;99.90;;;;;;5028089;28;20039;-89
2023/01/18 01:47:54;;;;;;;29.37;21.50;;;3.10;99.90;;;;;;5011651;28;20026;-89
2023/01/18 01:50:33;;;;;;;28.63;20.70;;;3.10;99.90;;;;;;4996256;28;20042;-89
2023/01/18 01:52:59;;;;;;;24.87;20.07;;;3.10;99.90;;;;;;4994551;28;20111;-90
2023/01/18 01:55:29;;;;;;;31.07;21.07;;;3.10;99.90;;;;;;5005660;28;20034;-90
2023/01/18 01:58:12;;;;;;;31.00;22.60;;;3.10;99.90;;;;;;5010483;28;20057;-89
2023/01/18 02:00:38;;;;;;;23.93;19.07;;;3.10;99.90;;;;;;5009683;28;20030;-90
2023/01/18 02:03:08;;;;;;;32.83;22.20;;;3.10;99.90;;;;;;4978671;28;20034;-90
2023/01/18 02:05:39;;;;;;;27.50;19.85;;;3.10;99.90;;;;;;4962735;28;20045;-90
2023/01/18 02:08:10;;;;;;;28.17;21.38;;;3.10;99.90;;;;;;4983522;28;20033;-89
2023/01/18 02:10:36;;;;;;;27.90;20.60;;;3.20;99.90;;;;;;4986360;28;20503;-90
2023/01/18 02:13:03;;;;;;;32.47;21.50;;;3.10;99.90;;;;;;4978237;28;20313;-90
2023/01/18 02:16:02;;;;;;;28.43;21.43;;;3.10;99.90;;;;;;4982158;28;20384;-90
2023/01/18 02:18:36;;;;;;;32.10;21.80;;;3.10;99.90;;;;;;4981591;28;20050;-89
2023/01/18 02:21:18;;;;;;;32.37;21.97;;;3.00;99.90;;;;;;4978005;28;20038;-89
2023/01/18 02:24:02;;;;;;;32.60;20.90;;;3.10;99.90;;;;;;5027181;28;20034;-89
2023/01/18 02:26:55;;;;;;;28.00;20.03;;;3.20;99.90;;;;;;4979634;28;20027;-90
2023/01/18 02:29:42;;;;;;;32.53;21.83;;;3.10;99.90;;;;;;4994655;28;20065;-89
2023/01/18 02:32:19;;;;;;;26.70;20.80;;;3.10;99.90;;;;;;4994250;28;20041;-89
2023/01/18 02:35:03;;;;;;;27.20;20.67;;;3.10;99.90;;;;;;4995367;28;20045;-90
2023/01/18 02:37:43;;;;;;;30.23;21.13;;;3.30;99.90;;;;;;5008470;28;20026;-90
2023/01/18 02:40:37;;;;;;;28.52;20.52;;;3.30;99.90;;;;;;5027150;28;20476;-89
2023/01/18 02:48:46;;;;;;;30.83;21.30;;;3.40;99.90;;;;;;4990327;28;20046;-90
2023/01/18 02:51:12;;;;;;;27.97;20.23;;;3.40;99.90;;;;;;4979063;28;20058;-90
2023/01/18 02:53:42;;;;;;;31.60;20.77;;;3.40;99.90;;;;;;4973945;28;20031;-90
2023/01/18 02:56:09;;;;;;;30.77;21.37;;;3.40;99.90;;;;;;4925372;28;20035;-90
2023/01/18 02:58:35;;;;;;;29.37;20.33;;;3.40;99.90;;;;;;4972833;28;20042;-90
2023/01/18 03:01:08;;;;;;;29.27;21.87;;;3.30;99.90;;;;;;4952385;28;20023;-90
2023/01/18 03:03:34;;;;;;;29.73;20.27;;;3.30;99.90;;;;;;4956730;28;20035;-89
2023/01/18 03:06:01;;;;;;;27.20;20.37;;;3.40;99.90;;;;;;4953738;28;20039;-90
2023/01/18 03:08:27;;;;;;;28.97;20.80;;;3.30;99.90;;;;;;4937060;28;20202;-90
2023/01/18 03:10:59;;;;;;;33.37;20.67;;;3.30;99.90;;;;;;4971683;28;20566;-89
2023/01/18 03:14:00;;;;;;;34.00;20.90;;;3.30;99.90;;;;;;4954118;28;20046;-89
2023/01/18 03:16:59;;;;;;;29.20;20.77;;;3.30;99.90;;;;;;4990074;28;20181;-89
2023/01/18 03:25:40;;;;;;;26.33;20.27;;;3.20;99.90;;;;;;5018800;28;20049;-90
2023/01/18 03:33:47;;;;;;;27.93;20.30;;;3.20;99.90;;;;;;4992287;28;20479;-90
2023/01/18 03:36:18;;;;;;;28.97;19.47;;;3.10;99.90;;;;;;4971515;28;20416;-89
2023/01/18 03:38:46;;;;;;;31.17;20.27;;;3.20;99.90;;;;;;4991363;28;20054;-90
2023/01/18 03:41:12;;;;;;;23.50;19.27;;;3.10;99.90;;;;;;5006014;28;20031;-89
2023/01/18 03:43:38;;;;;;;26.50;19.30;;;3.10;99.90;;;;;;5005887;28;20035;-90
2023/01/18 03:46:06;;;;;;;23.20;18.27;;;3.00;99.90;;;;;;4989574;28;20488;-90
2023/01/18 03:48:32;;;;;;;28.80;19.93;;;3.00;99.90;;;;;;5006796;28;20023;-89
2023/01/18 03:51:05;;;;;;;30.63;19.97;;;3.10;99.90;;;;;;5010945;28;20039;-90
2023/01/18 03:53:59;;;;;;;26.53;19.30;;;3.20;99.90;;;;;;5008831;28;20460;-90
2023/01/18 03:56:33;;;;;;;25.67;18.10;;;3.20;99.90;;;;;;4993431;28;20037;-89
2023/01/18 03:59:00;;;;;;;23.27;18.10;;;3.20;99.90;;;;;;4996099;28;20369;-91
2023/01/18 04:01:26;;;;;;;20.47;16.57;;;3.30;99.90;;;;;;5011285;28;20045;-90
2023/01/18 04:03:52;;;;;;;25.60;18.60;;;3.40;99.90;;;;;;5012727;28;20046;-90
2023/01/18 04:06:21;;;;;;;27.20;19.40;;;3.40;99.90;;;;;;4996777;28;20038;-89
2023/01/18 04:08:49;;;;;;;44.43;24.67;;;3.40;99.90;;;;;;5011838;28;20038;-88
2023/01/18 04:11:15;;;;;;;44.03;25.13;;;3.40;99.90;;;;;;5004120;28;20098;-88
2023/01/18 04:13:41;;;;;;;31.13;22.00;;;3.40;99.90;;;;;;4995845;28;20030;-88
2023/01/18 04:16:07;;;;;;;43.83;24.33;;;3.40;99.90;;;;;;4996224;28;20039;-88
2023/01/18 04:18:33;;;;;;;29.90;20.83;;;3.50;99.90;;;;;;4995589;28;20506;-88
2023/01/18 04:21:00;;;;;;;23.40;18.60;;;3.50;99.90;;;;;;5012423;28;20037;-88
2023/01/18 04:23:26;;;;;;;44.10;26.80;;;3.50;99.90;;;;;;4995846;28;20045;-86
2023/01/18 04:25:52;;;;;;;40.93;24.13;;;3.50;99.90;;;;;;5012395;28;20031;-88
2023/01/18 04:28:26;;;;;;;33.93;21.03;;;3.50;99.90;;;;;;5028189;28;20506;-88
2023/01/18 04:30:53;;;;;;;25.33;19.20;;;3.60;99.90;;;;;;5026690;28;20034;-88
2023/01/18 04:33:19;;;;;;;31.10;22.30;;;3.60;99.90;;;;;;4996569;28;20037;-87
2023/01/18 04:35:46;;;;;;;22.23;17.90;;;3.50;99.90;;;;;;5028500;28;20049;-88
2023/01/18 04:38:12;;;;;;;19.90;17.07;;;3.40;99.90;;;;;;5026187;28;20384;-88
2023/01/18 04:40:39;;;;;;;33.10;22.73;;;3.40;99.90;;;;;;4991683;28;20034;-89
2023/01/18 04:43:05;;;;;;;19.73;17.47;;;3.40;99.90;;;;;;4964152;28;20041;-88
2023/01/18 04:45:31;;;;;;;19.27;16.40;;;3.30;99.90;;;;;;4979284;28;20034;-88
2023/01/18 04:47:57;;;;;;;16.67;14.97;;;3.20;99.90;;;;;;5004590;28;20040;-88
2023/01/18 04:50:23;;;;;;;23.17;15.60;;;3.20;99.90;;;;;;4998337;28;20048;-89
2023/01/18 04:52:49;;;;;;;16.37;14.70;;;3.20;99.90;;;;;;4997476;28;20479;-87
2023/01/18 04:55:15;;;;;;;17.83;15.53;;;3.20;99.90;;;;;;5016084;28;20040;-88
2023/01/18 04:57:42;;;;;;;21.53;15.10;;;3.20;99.90;;;;;;5016921;28;20026;-89
2023/01/18 05:00:10;;;;;;;23.90;15.97;;;3.20;99.90;;;;;;5028275;28;20039;-86
2023/01/18 05:02:36;;;;;;;20.77;14.90;;;3.20;99.90;;;;;;5026833;28;20098;-86
2023/01/18 05:05:03;;;;;;;19.23;14.07;;;3.20;99.90;;;;;;4995413;28;20030;-87
2023/01/18 05:07:32;;;;;;;19.13;13.60;;;3.20;99.90;;;;;;5026852;28;20482;-86
2023/01/18 05:10:02;;;;;;;40.57;14.60;;;3.10;99.90;;;;;;4979425;28;20047;-88
2023/01/18 05:12:28;;;;;;;17.53;14.47;;;3.10;99.90;;;;;;4996081;28;20045;-87
2023/01/18 05:14:54;;;;;;;391.10;42.23;;;3.10;99.90;;;;;;4995765;28;20450;-88
2023/01/18 05:17:26;;;;;;;20.67;14.23;;;3.10;99.90;;;;;;4978661;28;20038;-88
2023/01/18 05:19:53;;;;;;;;;;;3.10;99.90;;;;;;4979782;28;20038;-86
2023/01/18 05:22:20;;;;;;;1734.33;250.50;;;3.10;99.90;;;;;;5026649;28;20008;-87
2023/01/18 05:24:47;;;;;;;1999.90;158.13;;;3.10;99.90;;;;;;4997135;28;20030;-86
2023/01/18 05:27:13;;;;;;;517.80;36.23;;;3.10;99.90;;;;;;5002736;28;20042;-86
2023/01/18 05:29:40;;;;;;;58.83;16.90;;;3.10;99.90;;;;;;5010791;28;20022;-86
2023/01/18 05:32:06;;;;;;;17.33;14.20;;;3.10;99.90;;;;;;5006291;28;20384;-87
2023/01/18 05:34:32;;;;;;;745.73;57.00;;;3.00;99.90;;;;;;4996263;28;20083;-87
2023/01/18 05:36:58;;;;;;;510.67;32.77;;;3.00;99.90;;;;;;4959509;28;20516;-86
2023/01/18 05:39:24;;;;;;;20.47;14.10;;;3.00;99.90;;;;;;4993447;28;20034;-87
2023/01/18 05:41:50;;;;;;;715.77;50.07;;;3.00;99.90;;;;;;4994900;28;20039;-87
2023/01/18 05:44:17;;;;;;;78.90;15.97;;;3.00;99.90;;;;;;5010865;28;20087;-88
2023/01/18 05:46:43;;;;;;;17.30;12.53;;;3.00;99.90;;;;;;5023736;28;20034;-86
2023/01/18 05:49:09;;;;;;;289.13;23.97;;;3.00;99.90;;;;;;4963124;28;20038;-88
2023/01/18 05:51:35;;;;;;;13.43;12.37;;;3.00;99.90;;;;;;4977252;28;20043;-87
2023/01/18 05:54:01;;;;;;;15.03;12.73;;;3.00;99.90;;;;;;4978109;28;20046;-88
2023/01/18 05:56:27;;;;;;;874.20;52.57;;;3.00;99.90;;;;;;4990212;28;20039;-87
2023/01/18 05:58:53;;;;;;;57.73;24.83;;;2.90;99.90;;;;;;5007482;28;20062;-87
2023/01/18 06:01:19;;;;;;;57.67;24.87;;;2.90;99.90;;;;;;4975170;28;20473;-88
2023/01/18 06:03:45;;;;;;;121.87;40.67;;;2.90;99.90;;;;;;4991204;28;20038;-87
2023/01/18 06:06:11;;;;;;;83.50;33.17;;;2.90;99.90;;;;;;5007420;28;20045;-88
2023/01/18 06:08:37;;;;;;;49.30;23.40;;;2.90;99.90;;;;;;5007227;28;20086;-88
2023/01/18 06:11:05;;;;;;;36.13;19.07;;;2.90;99.90;;;;;;5016138;28;20042;-89
2023/01/18 06:13:31;;;;;;;31.70;18.50;;;2.90;99.90;;;;;;5026605;28;20030;-88
2023/01/18 06:15:58;;;;;;;27.20;18.20;;;2.90;99.90;;;;;;5026586;28;20034;-88
2023/01/18 06:18:24;;;;;;;21.27;15.53;;;2.90;99.90;;;;;;5026899;28;20049;-88
2023/01/18 06:20:54;;;;;;;16.60;14.87;;;2.80;99.90;;;;;;5010023;28;20034;-88
2023/01/18 06:23:20;;;;;;;17.43;15.50;;;2.80;99.90;;;;;;4976857;28;20046;-88
2023/01/18 06:25:47;;;;;;;17.77;14.60;;;2.80;99.90;;;;;;4995165;28;20046;-87
2023/01/18 06:28:13;;;;;;;15.83;14.30;;;2.80;99.90;;;;;;4977356;28;20419;-88
2023/01/18 06:30:41;;;;;;;16.70;14.03;;;2.80;99.90;;;;;;4994072;28;20045;-88
2023/01/18 06:33:08;;;;;;;15.67;13.47;;;2.80;99.90;;;;;;5009964;28;20571;-88
2023/01/18 06:35:35;;;;;;;13.13;11.87;;;2.70;99.90;;;;;;4993777;28;20041;-88
2023/01/18 06:38:02;;;;;;;15.33;13.60;;;2.70;99.90;;;;;;5008532;28;20031;-88
2023/01/18 06:40:28;;;;;;;12.73;11.53;;;2.70;99.90;;;;;;4993504;28;20069;-89
2023/01/18 06:42:54;;;;;;;18.57;11.10;;;2.80;99.90;;;;;;4977315;28;20057;-87
2023/01/18 06:45:21;;;;;;;14.70;12.87;;;2.70;99.90;;;;;;5026292;28;20049;-88
2023/01/18 06:47:48;;;;;;;15.67;14.00;;;2.70;99.90;;;;;;4993599;28;20046;-88
2023/01/18 06:50:14;;;;;;;24.27;17.30;;;2.80;99.90;;;;;;5015458;28;20026;-89
2023/01/18 06:52:42;;;;;;;24.90;18.30;;;2.80;99.90;;;;;;4987578;28;20046;-88
2023/01/18 06:55:09;;;;;;;33.77;21.37;;;2.80;99.90;;;;;;5009911;28;20030;-89
2023/01/18 06:57:35;;;;;;;18.73;16.43;;;2.80;99.90;;;;;;5009725;28;20045;-89
2023/01/18 07:00:05;;;;;;;19.50;16.20;;;2.80;99.90;;;;;;5010047;28;20479;-88
2023/01/18 07:02:32;;;;;;;23.43;18.53;;;2.80;99.90;;;;;;5023550;28;20035;-88
2023/01/18 07:04:58;;;;;;;17.77;15.53;;;2.70;99.90;;;;;;5009538;28;20038;-88
2023/01/18 07:07:25;;;;;;;18.83;15.90;;;2.60;99.90;;;;;;4992686;28;20037;-88
2023/01/18 07:09:51;;;;;;;17.97;16.07;;;2.60;99.90;;;;;;5009457;28;20045;-88
2023/01/18 07:12:17;;;;;;;26.90;15.73;;;2.60;99.90;;;;;;5009597;28;20033;-89
2023/01/18 07:14:43;;;;;;;22.77;18.43;;;2.60;99.90;;;;;;5025105;28;20459;-88
2023/01/18 07:17:09;;;;;;;23.30;17.67;;;2.60;99.90;;;;;;4977188;28;20066;-89
2023/01/18 07:19:36;;;;;;;17.80;15.83;;;2.70;99.90;;;;;;4977615;28;20054;-88
2023/01/18 07:22:02;;;;;;;20.33;16.53;;;2.70;99.90;;;;;;4980164;28;20042;-89
2023/01/18 07:24:28;;;;;;;26.90;20.77;;;2.80;99.90;;;;;;4997056;28;20034;-87
2023/01/18 07:26:54;;;;;;;23.40;18.33;;;2.90;99.90;;;;;;5008270;28;20045;-85
2023/01/18 07:29:20;;;;;;;258.57;42.73;;;3.00;99.90;;;;;;4993984;28;20038;-87
2023/01/18 07:31:46;;;;;;;19.13;16.23;;;3.00;99.90;;;;;;4992643;28;20034;-87
2023/01/18 07:34:12;;;;;;;16.70;15.07;;;3.00;99.90;;;;;;4991058;28;20472;-86
2023/01/18 07:36:40;;;;;;;15.77;14.17;;;3.00;99.90;;;;;;5006871;28;20038;-87
2023/01/18 07:39:07;;;;;;;16.17;14.47;;;2.90;99.90;;;;;;5008787;28;20045;-88
2023/01/18 07:41:33;;;;;;;14.83;13.37;;;2.90;99.90;;;;;;5000088;28;20369;-87
2023/01/18 07:44:00;;;;;;;13.93;12.40;;;2.80;99.90;;;;;;4991623;28;20038;-91
2023/01/18 07:46:26;;;;;;;13.73;12.40;;;2.70;99.90;;;;;;5011974;28;20035;-89
2023/01/18 07:48:52;;;;;;;23.00;16.50;;;2.60;99.90;;;;;;4999852;28;20499;-85
2023/01/18 07:51:19;;;;;;;25.27;18.20;;;2.80;99.90;;;;;;4990476;28;20057;-87
2023/01/18 07:53:45;;;;;;;21.93;16.23;;;2.80;99.90;;;;;;5005825;28;20035;-87
2023/01/18 07:56:15;;;;;;;21.13;16.53;;;2.80;99.90;;;;;;4974294;28;20023;-87
2023/01/18 07:58:41;;;;;;;16.88;15.23;;;2.90;99.90;;;;;;5006404;28;20046;-87
2023/01/18 08:01:12;;;;;;;17.40;14.60;;;2.90;99.90;;;;;;5007153;28;20046;-85
2023/01/18 08:03:38;;;;;;;20.83;18.40;;;2.90;99.90;;;;;;5006956;28;20022;-85
2023/01/18 08:06:06;;;;;;;15.83;14.17;;;2.90;99.90;;;;;;4989615;28;20042;-87
2023/01/18 08:08:32;;;;;;;15.27;13.37;;;3.00;99.90;;;;;;4991705;28;20026;-88
2023/01/18 08:11:00;;;;;;;14.23;12.90;;;3.10;99.90;;;;;;4992504;28;20045;-89
2023/01/18 08:13:26;;;;;;;15.53;13.93;;;3.00;99.90;;;;;;4992519;28;20045;-89
2023/01/18 08:15:53;;;;;;;15.23;13.63;;;3.10;99.90;;;;;;4992048;28;20045;-88
2023/01/18 08:18:19;;;;;;;15.33;13.60;;;3.10;99.90;;;;;;5008863;28;20027;-89
2023/01/18 08:20:45;;;;;;;14.93;13.33;;;3.10;99.90;;;;;;5024814;28;20395;-88
2023/01/18 08:23:12;;;;;;;14.73;13.20;;;3.10;99.90;;;;;;5023435;28;20030;-89
2023/01/18 08:25:38;;;;;;;16.00;14.10;;;3.20;99.90;;;;;;4990916;28;20030;-84
2023/01/18 08:28:04;;;;;;;20.93;16.13;;;3.20;99.90;;;;;;5007510;28;20046;-85
2023/01/18 08:30:36;;;;;;;19.43;16.93;;;3.30;99.90;;;;;;4990703;28;20507;-85
2023/01/18 08:33:02;;;;;;;18.10;15.70;;;3.30;99.90;;;;;;5019953;28;20027;-87
2023/01/18 08:35:30;;;;;;;37.67;21.20;;;3.40;99.90;;;;;;4990945;28;20495;-85
2023/01/18 08:37:57;;;;;;;63.97;29.43;;;3.40;99.90;;;;;;4986991;28;20035;-85
2023/01/18 08:40:24;;;;;;;50.23;24.83;;;3.30;99.90;;;;;;4988265;28;20057;-85
2023/01/18 08:42:56;;;;;;;46.97;24.63;;;3.30;99.90;;;;;;4993041;28;20038;-84
2023/01/18 08:45:22;;;;;;;18.03;14.87;;;3.30;99.90;;;;;;5004004;28;20042;-88
2023/01/18 08:47:57;;;;;;;32.70;19.53;;;3.40;99.90;;;;;;4996301;28;20026;-88
2023/01/18 08:50:24;;;;;;;32.23;18.40;;;3.30;99.90;;;;;;5010376;28;20045;-86
2023/01/18 08:52:52;;;;;;;33.77;19.37;;;3.30;99.90;;;;;;5018821;28;20061;-87
2023/01/18 08:55:19;;;;;;;20.47;16.87;;;3.20;99.90;;;;;;5027428;28;20365;-87
2023/01/18 08:57:46;;;;;;;309.10;35.73;;;3.30;99.90;;;;;;4994561;28;20034;-85
2023/01/18 09:00:12;;;;;;;14.03;12.70;;;3.30;99.90;;;;;;5027095;28;20042;-87
2023/01/18 09:02:38;;;;;;;679.07;64.83;;;3.40;99.90;;;;;;4983172;28;20418;-87
2023/01/18 09:05:05;;;;;;;16.27;14.20;;;3.50;99.90;;;;;;5006352;28;20030;-87
2023/01/18 09:07:31;;;;;;;525.97;50.57;;;3.60;99.90;;;;;;5011056;28;20038;-87
2023/01/18 09:09:57;;;;;;;258.33;26.97;;;3.70;99.90;;;;;;5010548;28;20034;-86
2023/01/18 09:12:23;;;;;;;16.37;13.57;;;3.80;99.90;;;;;;4994105;28;20038;-85
2023/01/18 09:14:49;;;;;;;110.13;19.33;;;3.80;99.90;;;;;;4992312;28;20055;-86
2023/01/18 09:17:18;;;;;;;527.43;38.00;;;3.80;99.90;;;;;;5026322;28;20034;-84
2023/01/18 09:19:44;;;;;;;37.60;16.03;;;3.90;99.90;;;;;;4991692;28;20051;-86
2023/01/18 09:22:11;;;;;;;170.00;21.97;;;3.90;99.90;;;;;;4993859;28;20053;-86
2023/01/18 09:24:37;;;;;;;16.97;15.23;;;3.90;99.90;;;;;;5001512;28;20030;-86
2023/01/18 09:27:05;;;;;;;16.60;14.10;;;4.00;99.90;;;;;;5008974;28;20054;-86
2023/01/18 09:29:32;;;;;;;15.17;13.77;;;4.00;99.90;;;;;;4978553;28;20042;-88
2023/01/18 09:31:59;;;;;;;14.90;13.30;;;3.90;99.90;;;;;;4985415;28;20065;-84
2023/01/18 09:34:25;;;;;;;14.53;13.03;;;4.00;99.90;;;;;;4991479;28;20030;-86
2023/01/18 09:36:51;;;;;;;13.17;11.93;;;4.00;99.90;;;;;;4994927;28;20045;-85
2023/01/18 09:39:18;;;;;;;14.33;13.03;;;4.00;99.90;;;;;;4997962;28;20038;-84
2023/01/18 09:41:52;;;;;;;15.50;14.30;;;4.10;99.90;;;;;;4989926;28;20057;-85
2023/01/18 09:44:37;;;;;;;13.97;12.87;;;4.10;99.90;;;;;;4965980;28;20042;-88
2023/01/18 09:47:11;;;;;;;11.77;10.67;;;4.20;99.90;;;;;;4994549;28;20462;-88
2023/01/18 09:49:50;;;;;;;13.13;11.87;;;4.10;99.90;;;;;;5013881;28;20388;-88
2023/01/18 09:52:31;;;;;;;14.47;13.17;;;4.00;99.90;;;;;;4966662;28;20046;-87
2023/01/18 09:55:09;;;;;;;14.82;13.55;;;4.10;99.90;;;;;;4992941;28;20042;-88
2023/01/18 09:57:54;;;;;;;13.07;11.73;;;4.30;99.90;;;;;;4992053;28;20035;-91
2023/01/18 10:00:31;;;;;;;13.37;12.17;;;4.60;99.90;;;;;;5000788;28;20058;-90
2023/01/18 10:03:04;;;;;;;14.10;12.90;;;4.60;99.90;;;;;;4974063;28;20472;-86
2023/01/18 10:05:32;;;;;;;13.67;12.37;;;4.60;99.90;;;;;;4974313;28;20043;-87
2023/01/18 10:08:20;;;;;;;13.27;12.17;;;4.40;99.90;;;;;;4974434;28;20027;-87
2023/01/18 10:10:59;;;;;;;12.77;11.63;;;4.50;99.90;;;;;;4974446;28;20035;-86
2023/01/18 10:13:44;;;;;;;13.27;12.10;;;4.50;99.90;;;;;;4987889;28;20030;-86
2023/01/18 10:16:13;;;;;;;15.83;14.33;;;4.70;99.90;;;;;;4989497;28;20057;-85
2023/01/18 10:18:44;;;;;;;14.30;13.00;;;4.90;99.90;;;;;;4986315;28;20041;-87
2023/01/18 10:21:40;;;;;;;14.30;13.20;;;5.10;99.90;;;;;;4987825;28;20054;-88
2023/01/18 10:24:18;;;;;;;14.03;12.87;;;5.40;99.90;;;;;;4993453;28;20491;-88
2023/01/18 10:26:45;;;;;;;13.90;12.70;;;5.60;99.90;;;;;;4990606;28;20042;-88
2023/01/18 10:29:15;;;;;;;13.30;12.20;;;5.50;99.90;;;;;;4975617;28;20050;-88
2023/01/18 10:31:56;;;;;;;15.65;14.43;;;5.60;99.90;;;;;;5016837;28;20045;-92
2023/01/18 10:34:28;;;;;;;16.70;14.90;;;5.80;99.90;;;;;;4991750;28;20033;-87
2023/01/18 10:36:57;;;;;;;15.57;13.97;;;5.80;99.90;;;;;;5003434;28;20023;-87
2023/01/18 10:39:44;;;;;;;14.20;13.00;;;5.70;99.90;;;;;;4993914;28;20031;-87
2023/01/18 10:42:45;;;;;;;16.43;14.73;;;5.70;99.90;;;;;;4983437;28;20414;-88
2023/01/18 10:45:22;;;;;;;14.73;13.57;;;5.70;99.90;;;;;;4986497;28;20068;-84
2023/01/18 10:47:50;;;;;;;14.00;12.73;;;5.70;99.90;;;;;;4985328;28;20041;-86
2023/01/18 10:50:37;;;;;;;13.47;12.43;;;5.80;99.90;;;;;;4987792;28;20037;-88
2023/01/18 10:53:22;;;;;;;15.30;13.93;;;5.80;99.90;;;;;;4996134;28;20049;-92
2023/01/18 10:56:01;;;;;;;14.60;13.27;;;5.90;99.90;;;;;;5010177;28;20034;-87
2023/01/18 10:58:49;;;;;;;14.37;13.47;;;6.10;99.90;;;;;;5007697;28;20026;-88
2023/01/18 11:01:28;;;;;;;16.10;14.57;;;6.10;99.90;;;;;;4993465;28;20053;-86
2023/01/18 11:04:04;;;;;;;23.20;17.97;;;6.20;99.90;;;;;;5012515;28;20037;-85
2023/01/18 11:06:50;;;;;;;15.53;14.17;;;6.20;99.90;;;;;;5008311;28;20034;-85
2023/01/18 11:09:40;;;;;;;16.17;14.87;;;6.20;99.90;;;;;;5013887;28;20364;-84
2023/01/18 11:12:35;;;;;;;15.23;14.03;;;6.30;99.90;;;;;;5020955;28;20037;-87
2023/01/18 11:15:13;;;;;;;17.07;15.53;;;6.40;99.90;;;;;;4997810;28;20030;-87
2023/01/18 11:17:59;;;;;;;18.33;16.23;;;6.40;99.90;;;;;;5012238;28;20029;-85
2023/01/18 11:20:46;;;;;;;15.40;14.50;;;6.20;99.90;;;;;;4981940;28;20051;-86
2023/01/18 11:23:15;;;;;;;16.40;14.73;;;6.20;99.90;;;;;;5022887;28;20038;-87
2023/01/18 11:25:53;;;;;;;21.43;19.30;;;6.20;99.90;;;;;;5023598;28;20390;-86
2023/01/18 11:28:21;;;;;;;17.40;16.10;;;6.20;99.90;;;;;;4992578;28;20053;-87
2023/01/18 11:31:21;;;;;;;15.80;14.80;;;6.10;99.90;;;;;;4985715;28;20042;-86
2023/01/18 11:33:48;;;;;;;15.40;14.27;;;6.20;99.90;;;;;;5003792;28;20038;-86
2023/01/18 11:36:15;;;;;;;15.93;14.67;;;6.30;99.90;;;;;;4980151;28;20042;-89
2023/01/18 11:38:41;;;;;;;16.63;15.50;;;6.40;99.90;;;;;;5004339;28;20038;-86
2023/01/18 11:41:15;;;;;;;13.77;12.83;;;6.30;99.90;;;;;;4988079;28;20042;-90
2023/01/18 11:43:53;;;;;;;21.50;18.23;;;6.40;99.90;;;;;;5007782;28;20034;-87
2023/01/18 11:46:35;;;;;;;14.53;13.37;;;6.50;99.90;;;;;;4994176;28;20049;-90
2023/01/18 11:49:29;;;;;;;14.53;13.33;;;6.60;99.90;;;;;;5008967;28;20468;-89
2023/01/18 11:52:01;;;;;;;14.00;13.10;;;6.70;99.90;;;;;;5041549;28;20038;-90
2023/01/18 11:54:50;;;;;;;12.90;11.93;;;6.80;99.90;;;;;;5013313;28;20383;-90
2023/01/18 11:57:16;;;;;;;12.73;11.93;;;6.80;99.90;;;;;;4991409;28;20057;-90
2023/01/18 11:59:44;;;;;;;13.20;12.40;;;7.00;99.90;;;;;;5009035;28;20046;-92
2023/01/18 12:02:34;;;;;;;13.33;12.33;;;7.10;99.90;;;;;;5008412;28;20046;-92
2023/01/18 12:05:23;;;;;;;13.60;12.50;;;7.20;99.90;;;;;;4994002;28;20061;-90
2023/01/18 12:08:12;;;;;;;13.20;12.17;;;7.20;99.90;;;;;;4992254;28;20050;-92
2023/01/18 12:10:44;;;;;;;13.50;12.40;;;7.20;99.90;;;;;;4992906;28;20045;-91
2023/01/18 12:13:42;;;;;;;13.67;12.60;;;7.20;99.90;;;;;;4992307;28;20411;-92
2023/01/18 12:16:16;;;;;;;13.60;12.80;;;7.10;99.90;;;;;;5025374;28;20043;-91
2023/01/18 12:19:09;;;;;;;13.63;12.83;;;7.20;99.90;;;;;;5027243;28;20515;-92
2023/01/18 12:21:44;;;;;;;17.53;16.03;;;7.20;99.90;;;;;;4995947;28;20077;-92
2023/01/18 12:24:34;;;;;;;15.93;14.93;;;7.30;99.90;;;;;;4997149;28;20042;-91
2023/01/18 12:27:20;;;;;;;14.77;13.77;;;7.40;99.90;;;;;;5001526;28;20030;-90
2023/01/18 12:29:55;;;;;;;15.43;14.20;;;7.60;99.90;;;;;;5015223;28;20030;-90
2023/01/18 12:32:40;;;;;;;14.47;13.43;;;7.70;99.90;;;;;;5015138;28;20105;-91
2023/01/18 12:35:15;;;;;;;15.33;14.03;;;7.80;99.90;;;;;;5007548;28;20041;-90
2023/01/18 12:38:18;;;;;;;12.83;12.03;;;8.10;99.90;;;;;;4997176;28;20387;-91
2023/01/18 12:41:06;;;;;;;14.90;13.67;;;8.10;99.90;;;;;;5000270;28;20050;-92
2023/01/18 12:43:59;;;;;;;15.07;14.07;;;7.90;99.90;;;;;;5005420;28;20034;-91
2023/01/18 12:46:36;;;;;;;15.17;14.27;;;8.00;99.90;;;;;;4998204;28;20391;-91
2023/01/18 12:49:07;;;;;;;15.67;14.70;;;7.90;99.90;;;;;;5002540;28;20479;-92
2023/01/18 12:51:34;;;;;;;15.27;14.15;;;7.90;99.90;;;;;;4980929;28;20034;-92
2023/01/18 12:54:16;;;;;;;15.63;14.70;;;7.90;99.90;;;;;;4981036;28;20030;-92
2023/01/18 12:56:44;;;;;;;16.20;15.13;;;8.00;99.90;;;;;;4975542;28;20031;-92
2023/01/18 12:59:19;;;;;;;16.27;15.07;;;8.00;99.90;;;;;;4977048;28;20035;-92
2023/01/18 13:01:54;;;;;;;15.80;14.70;;;8.10;99.90;;;;;;4976680;28;20496;-91
2023/01/18 13:04:26;;;;;;;15.03;14.03;;;8.10;99.90;;;;;;5031299;28;20048;-92
2023/01/18 13:06:55;;;;;;;15.50;14.40;;;8.10;99.90;;;;;;4998906;28;20048;-93
2023/01/18 13:09:23;;;;;;;15.70;14.70;;;7.90;99.90;;;;;;4998560;28;20041;-92
2023/01/18 13:11:50;;;;;;;15.87;14.77;;;7.90;99.90;;;;;;4985055;28;20525;-92
2023/01/18 13:14:37;;;;;;;14.53;13.43;;;7.80;99.90;;;;;;5028894;28;20045;-92
2023/01/18 13:17:03;;;;;;;15.97;14.77;;;7.80;99.90;;;;;;4995173;28;20030;-92
2023/01/18 13:19:57;;;;;;;12.97;12.17;;;7.80;99.90;;;;;;4996662;28;20030;-93
2023/01/18 13:22:53;;;;;;;12.80;11.83;;;7.90;99.90;;;;;;4948701;28;20053;-93
2023/01/18 13:25:39;;;;;;;13.03;12.03;;;7.90;99.90;;;;;;4996671;28;20042;-93
2023/01/18 13:28:22;;;;;;;12.43;11.63;;;7.70;99.90;;;;;;4978030;28;20400;-92
2023/01/18 13:30:48;;;;;;;12.40;11.53;;;7.70;99.90;;;;;;4977649;28;20026;-93
2023/01/18 13:33:15;;;;;;;12.80;11.90;;;7.70;99.90;;;;;;5002778;28;20049;-92